Time;durP1;ratioP1;P1;durP2;ratioP2;P2;SDS_P1;SDS_P2;PMS_P1;PMS_P2;Temp;Humidity;BMP_temperature;BMP_pressure;BME280_temperature;BME280_humidity;BME280_pressure;Samples;Min_cycle;Max_cycle;Signal;HPM_P1;HPM_P2
2023/04/11 00:02:07;;;;;;;41.95;39.58;;;20.70;99.90;;;;;;5125829;28;20039;-72
2023/04/11 00:04:38;;;;;;;42.83;40.35;;;20.70;99.90;;;;;;5126443;28;20035;-72
2023/04/11 00:07:09;;;;;;;40.55;38.17;;;20.60;99.90;;;;;;5126101;28;20169;-72
2023/04/11 00:09:40;;;;;;;42.38;39.78;;;20.50;99.90;;;;;;5125641;28;20031;-72
2023/04/11 00:12:11;;;;;;;43.72;41.28;;;20.50;99.90;;;;;;5125716;28;20046;-72
2023/04/11 00:14:44;;;;;;;44.78;42.13;;;20.50;99.90;;;;;;5125652;28;20622;-72
2023/04/11 00:17:16;;;;;;;48.47;45.72;;;20.50;99.90;;;;;;5125513;28;20491;-72
2023/04/11 00:19:47;;;;;;;50.00;47.20;;;20.40;99.90;;;;;;5125498;28;20023;-72
2023/04/11 00:22:18;;;;;;;51.42;48.30;;;20.40;99.90;;;;;;5125606;28;20110;-72
2023/04/11 00:24:51;;;;;;;51.33;48.42;;;20.30;99.90;;;;;;5125357;28;20031;-72
2023/04/11 00:27:22;;;;;;;51.72;48.92;;;20.30;99.90;;;;;;5125237;28;20099;-72
2023/04/11 00:29:55;;;;;;;50.75;47.95;;;20.40;99.90;;;;;;5125216;28;20039;-72
2023/04/11 00:32:26;;;;;;;51.45;48.55;;;20.30;99.90;;;;;;5125134;28;20039;-72
2023/04/11 00:34:58;;;;;;;52.00;49.08;;;20.20;99.90;;;;;;5125197;28;20123;-72
2023/04/11 00:37:30;;;;;;;46.38;43.80;;;20.20;99.90;;;;;;5125229;28;20086;-73
2023/04/11 00:40:04;;;;;;;46.38;43.70;;;20.30;99.90;;;;;;5125216;28;20435;-73
2023/04/11 00:42:35;;;;;;;43.13;40.70;;;20.30;99.90;;;;;;5125215;28;20029;-73
2023/04/11 00:45:06;;;;;;;48.17;45.40;;;20.30;99.90;;;;;;5125026;28;20022;-69
2023/04/11 00:47:38;;;;;;;49.28;46.47;;;20.20;99.90;;;;;;5125013;28;20067;-72
2023/04/11 00:50:12;;;;;;;51.03;48.13;;;20.20;99.90;;;;;;5125177;28;20067;-72
2023/04/11 00:52:46;;;;;;;48.50;45.90;;;20.10;99.90;;;;;;5125015;28;20030;-72
2023/04/11 00:55:17;;;;;;;50.22;47.45;;;20.20;99.90;;;;;;5124941;28;20026;-72
2023/04/11 00:57:48;;;;;;;47.92;45.20;;;20.10;99.90;;;;;;5125023;28;20032;-73
2023/04/11 01:00:19;;;;;;;48.83;46.05;;;20.00;99.90;;;;;;5124716;28;20046;-72
2023/04/11 01:02:50;;;;;;;49.03;46.15;;;20.00;99.90;;;;;;5124957;28;20031;-72
2023/04/11 01:05:21;;;;;;;47.75;45.10;;;20.00;99.90;;;;;;5124791;28;20023;-73
2023/04/11 01:07:54;;;;;;;48.58;45.67;;;19.90;99.90;;;;;;5125024;28;20047;-72
2023/04/11 01:10:29;;;;;;;46.60;43.90;;;20.00;99.90;;;;;;5124813;28;20028;-72
2023/04/11 01:13:01;;;;;;;47.25;44.55;;;20.00;99.90;;;;;;5125017;28;20395;-73
2023/04/11 01:15:32;;;;;;;44.22;41.70;;;20.00;99.90;;;;;;5124864;28;20090;-73
2023/04/11 01:18:04;;;;;;;47.78;45.00;;;19.90;99.90;;;;;;5124976;28;20036;-73
2023/04/11 01:20:37;;;;;;;47.70;45.13;;;19.90;99.90;;;;;;5125038;28;20039;-72
2023/04/11 01:23:09;;;;;;;46.25;43.55;;;19.90;99.90;;;;;;5125031;28;20138;-72
2023/04/11 01:25:40;;;;;;;44.92;42.33;;;19.90;99.90;;;;;;5124862;28;20031;-72
2023/04/11 01:28:11;;;;;;;47.67;44.88;;;19.80;99.90;;;;;;5124870;28;20031;-72
2023/04/11 01:30:42;;;;;;;43.33;40.97;;;19.80;99.90;;;;;;5124704;28;20039;-73
2023/04/11 01:33:15;;;;;;;46.15;43.55;;;19.80;99.90;;;;;;5124858;28;20085;-73
2023/04/11 01:35:46;;;;;;;44.72;42.17;;;19.80;99.90;;;;;;5124796;28;20024;-72
2023/04/11 01:38:17;;;;;;;42.95;40.60;;;19.80;99.90;;;;;;5124688;28;20047;-72
2023/04/11 01:40:49;;;;;;;45.53;42.95;;;19.70;99.90;;;;;;5124604;28;20023;-72
2023/04/11 01:43:20;;;;;;;46.47;43.88;;;19.70;99.90;;;;;;5125331;28;20039;-72
2023/04/11 01:45:51;;;;;;;49.47;46.67;;;19.70;99.90;;;;;;5128233;28;20075;-72
2023/04/11 01:48:22;;;;;;;46.13;43.53;;;19.70;99.90;;;;;;5128381;28;20122;-73
2023/04/11 01:50:55;;;;;;;45.13;42.60;;;19.70;99.90;;;;;;5128215;28;20118;-72
2023/04/11 01:53:26;;;;;;;44.63;42.10;;;19.70;99.90;;;;;;5128250;28;20134;-73
2023/04/11 01:55:56;;;;;;;45.22;42.72;;;19.60;99.90;;;;;;5128032;28;20106;-72
2023/04/11 01:58:27;;;;;;;45.42;42.88;;;19.60;99.90;;;;;;5128102;28;20574;-73
2023/04/11 02:00:58;;;;;;;43.85;41.45;;;19.60;99.90;;;;;;5127783;28;20058;-73
2023/04/11 02:03:29;;;;;;;45.83;43.20;;;19.60;99.90;;;;;;5127987;28;20039;-73
2023/04/11 02:06:00;;;;;;;44.45;41.75;;;19.60;99.90;;;;;;5127845;28;20015;-72
2023/04/11 02:08:31;;;;;;;45.55;42.92;;;19.50;99.90;;;;;;5127861;28;20035;-72
2023/04/11 02:11:01;;;;;;;46.05;43.42;;;19.50;99.90;;;;;;5127980;28;20116;-73
2023/04/11 02:13:33;;;;;;;42.03;39.53;;;19.50;99.90;;;;;;5127799;28;20028;-72
2023/04/11 02:16:13;;;;;;;42.72;40.33;;;19.50;99.90;;;;;;5127844;28;20019;-73
2023/04/11 02:18:45;;;;;;;40.25;37.85;;;19.50;99.90;;;;;;5127729;28;20075;-72
2023/04/11 02:21:16;;;;;;;42.25;39.80;;;19.40;99.90;;;;;;5127774;28;20046;-73
2023/04/11 02:26:27;;;;;;;43.85;41.35;;;19.40;99.90;;;;;;5328836;23;20051;-71
2023/04/11 02:28:58;;;;;;;44.50;41.97;;;19.40;99.90;;;;;;5147489;28;20093;-68
2023/04/11 02:31:29;;;;;;;43.17;40.67;;;19.40;99.90;;;;;;5134690;28;20512;-72
2023/04/11 02:34:00;;;;;;;40.42;38.17;;;19.40;99.90;;;;;;5127422;28;20042;-72
2023/04/11 02:36:31;;;;;;;42.53;40.03;;;19.30;99.90;;;;;;5140212;28;20030;-71
2023/04/11 02:39:02;;;;;;;41.30;38.97;;;19.30;99.90;;;;;;5147610;28;20417;-72
2023/04/11 02:41:33;;;;;;;41.25;38.80;;;19.30;99.90;;;;;;5147550;28;20054;-71
2023/04/11 02:44:04;;;;;;;40.63;38.35;;;19.30;99.90;;;;;;5147422;28;20034;-72
2023/04/11 02:46:35;;;;;;;39.30;37.10;;;19.30;99.90;;;;;;5147216;28;20038;-71
2023/04/11 02:49:06;;;;;;;41.60;39.30;;;19.30;99.90;;;;;;5147295;28;20038;-71
2023/04/11 02:51:36;;;;;;;43.88;41.17;;;19.30;99.90;;;;;;5147323;28;20018;-72
2023/04/11 02:54:07;;;;;;;41.15;38.88;;;19.20;99.90;;;;;;5146896;28;20054;-71
2023/04/11 02:56:38;;;;;;;41.17;38.88;;;19.20;99.90;;;;;;5136136;28;20043;-72
2023/04/11 02:59:09;;;;;;;37.72;35.53;;;19.10;99.90;;;;;;5126905;28;20435;-71
2023/04/11 03:01:40;;;;;;;41.42;39.05;;;19.20;99.90;;;;;;5126917;28;20035;-72
2023/04/11 03:04:11;;;;;;;39.20;36.90;;;19.20;99.90;;;;;;5126856;28;20436;-71
2023/04/11 03:06:41;;;;;;;38.72;36.50;;;19.20;99.90;;;;;;5126800;28;20078;-71
2023/04/11 03:09:12;;;;;;;42.33;39.83;;;19.20;99.90;;;;;;5126843;28;20030;-72
2023/04/11 03:11:43;;;;;;;40.55;38.08;;;19.10;99.90;;;;;;5126636;28;20038;-71
2023/04/11 03:14:14;;;;;;;39.67;37.47;;;19.10;99.90;;;;;;5126775;28;20024;-71
2023/04/11 03:16:45;;;;;;;39.53;37.22;;;19.10;99.90;;;;;;5126693;29;20039;-71
2023/04/11 03:19:16;;;;;;;40.33;37.95;;;19.00;99.90;;;;;;5126716;28;20027;-71
2023/04/11 03:21:47;;;;;;;36.97;34.88;;;18.90;99.90;;;;;;5126472;28;20111;-72
2023/04/11 03:24:17;;;;;;;37.95;35.70;;;19.00;99.90;;;;;;5126323;28;20027;-71
2023/04/11 03:26:48;;;;;;;37.38;35.25;;;19.10;99.90;;;;;;5127600;28;20047;-71
2023/04/11 03:29:19;;;;;;;40.92;38.53;;;19.00;99.90;;;;;;5146383;28;20027;-72
2023/04/11 03:31:50;;;;;;;38.58;36.38;;;19.00;99.90;;;;;;5146260;28;20027;-72
2023/04/11 03:34:22;;;;;;;38.58;36.40;;;19.00;99.90;;;;;;5146348;28;20038;-72
2023/04/11 03:36:53;;;;;;;38.97;36.75;;;19.00;99.90;;;;;;5146188;28;20793;-71
2023/04/11 03:39:24;;;;;;;40.20;37.97;;;19.00;99.90;;;;;;5146153;28;20035;-72
2023/04/11 03:41:55;;;;;;;40.00;37.72;;;19.00;99.90;;;;;;5146012;28;20025;-72
2023/04/11 03:44:26;;;;;;;38.53;36.42;;;19.00;99.90;;;;;;5146040;28;20094;-72
2023/04/11 03:46:56;;;;;;;43.72;41.22;;;18.90;99.90;;;;;;5146056;28;20093;-72
2023/04/11 03:49:27;;;;;;;41.95;39.65;;;18.90;99.90;;;;;;5146017;28;20055;-72
2023/04/11 03:51:58;;;;;;;41.25;38.92;;;18.90;99.90;;;;;;5146223;28;20041;-71
2023/04/11 03:54:29;;;;;;;41.95;39.55;;;18.90;99.90;;;;;;5146061;28;20038;-72
2023/04/11 03:57:00;;;;;;;41.20;38.90;;;18.90;99.90;;;;;;5145853;28;20026;-72
2023/04/11 03:59:31;;;;;;;44.30;41.83;;;18.90;99.90;;;;;;5145893;28;20058;-71
2023/04/11 04:02:02;;;;;;;40.15;37.95;;;18.90;99.90;;;;;;5145813;28;20023;-71
2023/04/11 04:04:33;;;;;;;39.85;37.70;;;18.80;99.90;;;;;;5145938;28;20018;-72
2023/04/11 04:07:03;;;;;;;41.75;39.45;;;18.90;99.90;;;;;;5145213;28;20046;-72
2023/04/11 04:09:34;;;;;;;39.17;36.88;;;18.90;99.90;;;;;;5145757;28;20463;-72
2023/04/11 04:12:06;;;;;;;43.55;41.13;;;18.90;99.90;;;;;;5145605;28;20058;-72
2023/04/11 04:14:37;;;;;;;40.47;38.17;;;18.90;99.90;;;;;;5145656;28;20034;-71
2023/04/11 04:17:08;;;;;;;40.45;38.15;;;18.80;99.90;;;;;;5146006;28;20023;-71
2023/04/11 04:19:39;;;;;;;43.00;40.60;;;18.80;99.90;;;;;;5145508;28;20039;-72
2023/04/11 04:22:10;;;;;;;43.90;41.45;;;18.80;99.90;;;;;;5145567;28;20023;-72
2023/04/11 04:24:44;;;;;;;43.17;40.88;;;18.80;99.90;;;;;;5145007;28;20077;-71
2023/04/11 04:27:18;;;;;;;42.75;40.45;;;18.80;99.90;;;;;;5145406;28;20089;-72
2023/04/11 04:29:51;;;;;;;42.78;40.47;;;18.80;99.90;;;;;;5145757;28;20459;-72
2023/04/11 04:32:22;;;;;;;43.88;41.53;;;18.80;99.90;;;;;;5145291;28;20066;-72
2023/04/11 04:34:56;;;;;;;42.83;40.42;;;18.70;99.90;;;;;;5145236;28;20042;-72
2023/04/11 04:37:27;;;;;;;40.35;38.13;;;18.70;99.90;;;;;;5145168;28;20089;-72
2023/04/11 04:40:08;;;;;;;44.92;42.33;;;18.70;99.90;;;;;;5145133;28;20066;-72
2023/04/11 04:42:42;;;;;;;44.00;41.50;;;18.70;99.90;;;;;;5145180;28;20479;-71
2023/04/11 04:45:13;;;;;;;40.65;38.45;;;18.70;99.90;;;;;;5145115;28;20097;-72
2023/04/11 04:47:44;;;;;;;44.30;41.90;;;18.70;99.90;;;;;;5144983;28;20031;-72
2023/04/11 04:50:15;;;;;;;42.63;40.33;;;18.70;99.90;;;;;;5145263;28;20077;-72
2023/04/11 04:52:46;;;;;;;44.22;41.75;;;18.60;99.90;;;;;;5144883;28;20546;-72
2023/04/11 04:55:17;;;;;;;43.22;40.88;;;18.70;99.90;;;;;;5144796;28;20035;-72
2023/04/11 04:57:47;;;;;;;43.80;41.40;;;18.70;99.90;;;;;;5145128;28;20027;-72
2023/04/11 05:00:19;;;;;;;45.97;43.42;;;18.70;99.90;;;;;;5145081;28;20038;-71
2023/04/11 05:02:53;;;;;;;43.88;41.47;;;18.70;99.90;;;;;;5145046;28;20023;-71
2023/04/11 05:05:24;;;;;;;44.88;42.47;;;18.70;99.90;;;;;;5145155;28;20027;-72
2023/04/11 05:07:55;;;;;;;45.30;42.83;;;18.60;99.90;;;;;;5145082;28;20549;-72
2023/04/11 05:10:26;;;;;;;46.70;44.10;;;18.60;99.90;;;;;;5144882;28;20031;-72
2023/04/11 05:12:57;;;;;;;44.13;41.72;;;18.50;99.90;;;;;;5145099;28;20081;-67
2023/04/11 05:15:28;;;;;;;43.20;40.90;;;18.50;99.90;;;;;;5145052;28;20550;-72
2023/04/11 05:17:58;;;;;;;42.97;40.58;;;18.50;99.90;;;;;;5144972;28;20027;-72
2023/04/11 05:20:29;;;;;;;43.75;41.35;;;18.50;99.90;;;;;;5148981;28;20038;-72
2023/04/11 05:23:00;;;;;;;41.35;39.15;;;18.50;99.90;;;;;;5148924;28;20027;-72
2023/04/11 05:25:31;;;;;;;44.85;42.35;;;18.50;99.90;;;;;;5148472;28;20055;-72
2023/04/11 05:28:02;;;;;;;46.38;43.75;;;18.50;99.90;;;;;;5148642;28;20098;-72
2023/04/11 05:30:32;;;;;;;46.60;43.90;;;18.50;99.90;;;;;;5148817;28;20121;-72
2023/04/11 05:33:03;;;;;;;45.30;42.75;;;18.50;99.90;;;;;;5148624;28;20026;-72
2023/04/11 05:35:34;;;;;;;46.50;43.92;;;18.50;99.90;;;;;;5148532;28;20101;-68
2023/04/11 05:38:05;;;;;;;40.75;38.45;;;18.50;99.90;;;;;;5148663;28;20033;-72
2023/04/11 05:40:36;;;;;;;45.95;43.40;;;18.50;99.90;;;;;;5148488;28;20039;-68
2023/04/11 05:43:10;;;;;;;46.65;44.08;;;18.40;99.90;;;;;;5147209;28;20102;-72
2023/04/11 05:45:46;;;;;;;45.80;43.30;;;18.40;99.90;;;;;;5148411;28;20030;-68
2023/04/11 05:48:18;;;;;;;45.33;42.83;;;18.40;99.90;;;;;;5148357;28;20043;-72
2023/04/11 05:50:50;;;;;;;47.22;44.63;;;18.40;99.90;;;;;;5148266;28;20031;-72
2023/04/11 05:53:21;;;;;;;45.20;42.70;;;18.40;99.90;;;;;;5148289;28;20026;-72
2023/04/11 05:55:51;;;;;;;43.03;40.70;;;18.30;99.90;;;;;;5147963;28;20105;-69
2023/04/11 05:58:24;;;;;;;45.67;43.10;;;18.30;99.90;;;;;;5148211;28;20446;-72
2023/04/11 06:00:58;;;;;;;47.60;44.97;;;18.30;99.90;;;;;;5148015;28;20035;-71
2023/04/11 06:03:29;;;;;;;45.97;43.47;;;18.30;99.90;;;;;;5148167;28;20031;-71
2023/04/11 06:06:00;;;;;;;47.60;45.00;;;18.30;99.90;;;;;;5147910;28;20113;-72
2023/04/11 06:08:31;;;;;;;47.42;44.75;;;18.30;99.90;;;;;;5148004;28;20139;-72
2023/04/11 06:11:02;;;;;;;44.97;42.53;;;18.20;99.90;;;;;;5148054;28;20035;-72
2023/04/11 06:13:33;;;;;;;47.58;44.88;;;18.30;99.90;;;;;;5148022;28;20023;-70
2023/04/11 06:16:05;;;;;;;44.55;42.03;;;18.20;99.90;;;;;;5148053;28;20061;-70
2023/04/11 06:18:36;;;;;;;44.08;41.53;;;18.20;99.90;;;;;;5147986;28;20107;-71
2023/04/11 06:21:07;;;;;;;45.03;42.47;;;18.30;99.90;;;;;;5148064;28;20383;-71
2023/04/11 06:23:37;;;;;;;45.75;43.22;;;18.30;99.90;;;;;;5147936;28;20066;-72
2023/04/11 06:26:08;;;;;;;48.30;45.67;;;18.30;99.90;;;;;;5147352;28;20113;-71
2023/04/11 06:28:39;;;;;;;46.13;43.53;;;18.30;99.90;;;;;;5147648;28;20480;-72
2023/04/11 06:31:10;;;;;;;45.97;43.45;;;18.30;99.90;;;;;;5147212;28;20027;-68
2023/04/11 06:33:41;;;;;;;47.72;45.13;;;18.40;99.90;;;;;;5147567;28;20475;-72
2023/04/11 06:36:12;;;;;;;47.38;44.75;;;18.30;99.90;;;;;;5147627;28;20034;-72
2023/04/11 06:38:42;;;;;;;48.15;45.42;;;18.20;99.90;;;;;;5147341;28;20027;-68
2023/04/11 06:41:14;;;;;;;46.60;44.05;;;18.20;99.90;;;;;;5143028;28;20058;-68
2023/04/11 06:43:45;;;;;;;46.47;43.97;;;18.30;99.90;;;;;;5139409;28;20024;-70
2023/04/11 06:46:16;;;;;;;44.75;42.28;;;18.30;99.90;;;;;;5135257;28;20110;-70
2023/04/11 06:48:47;;;;;;;49.17;46.47;;;18.30;99.90;;;;;;5144196;28;20125;-67
2023/04/11 06:51:18;;;;;;;46.75;44.22;;;18.30;99.90;;;;;;5147142;28;20135;-72
2023/04/11 06:53:49;;;;;;;45.10;42.58;;;18.20;99.90;;;;;;5147246;28;20447;-72
2023/04/11 06:56:20;;;;;;;44.72;42.22;;;18.20;99.90;;;;;;5146929;28;20427;-71
2023/04/11 06:58:51;;;;;;;45.20;42.72;;;18.60;99.90;;;;;;5147049;28;20076;-70
2023/04/11 07:01:24;;;;;;;45.65;43.05;;;18.70;99.90;;;;;;5146965;28;20699;-70
2023/04/11 07:03:55;;;;;;;47.10;44.50;;;18.70;99.90;;;;;;5146905;28;20026;-70
2023/04/11 07:06:27;;;;;;;47.35;44.75;;;18.80;99.90;;;;;;5146771;28;20043;-70
2023/04/11 07:09:00;;;;;;;48.90;46.22;;;18.80;99.90;;;;;;5146871;28;20851;-70
2023/04/11 07:11:32;;;;;;;47.72;45.13;;;18.90;99.90;;;;;;5146757;28;20027;-70
2023/04/11 07:14:03;;;;;;;44.97;42.47;;;18.70;99.90;;;;;;5146706;28;20037;-70
2023/04/11 07:16:34;;;;;;;46.47;43.90;;;18.70;99.90;;;;;;5146616;28;20031;-70
2023/04/11 07:19:05;;;;;;;47.15;44.47;;;18.80;99.90;;;;;;5146599;28;20076;-70
2023/04/11 07:21:37;;;;;;;45.45;43.05;;;18.80;99.90;;;;;;5146568;28;20368;-70
2023/04/11 07:24:09;;;;;;;45.20;42.70;;;18.80;99.90;;;;;;5146428;28;20019;-70
2023/04/11 07:26:41;;;;;;;47.25;44.65;;;18.80;99.90;;;;;;5146105;28;20062;-69
2023/04/11 07:29:12;;;;;;;45.58;42.95;;;18.90;99.90;;;;;;5146433;28;20027;-70
2023/04/11 07:31:43;;;;;;;45.65;43.15;;;18.80;99.90;;;;;;5146574;28;20443;-70
2023/04/11 07:34:14;;;;;;;46.50;44.00;;;18.80;99.90;;;;;;5146475;28;20034;-70
2023/04/11 07:36:45;;;;;;;48.10;45.45;;;18.70;99.90;;;;;;5146488;28;20027;-70
2023/04/11 07:39:16;;;;;;;47.05;44.38;;;18.70;99.90;;;;;;5146522;28;20027;-70
2023/04/11 07:41:47;;;;;;;47.72;44.90;;;18.70;99.90;;;;;;5145347;28;20106;-65
2023/04/11 07:44:18;;;;;;;47.45;44.65;;;18.80;99.90;;;;;;5135929;28;20114;-66
2023/04/11 07:46:50;;;;;;;45.95;43.40;;;18.80;99.90;;;;;;5126109;28;20047;-67
2023/04/11 07:49:21;;;;;;;46.97;44.33;;;18.80;99.90;;;;;;5126119;28;20107;-70
2023/04/11 07:51:53;;;;;;;48.53;45.80;;;18.70;99.90;;;;;;5126126;28;20075;-70
2023/04/11 07:54:30;;;;;;;50.35;47.65;;;18.70;99.90;;;;;;5125804;28;20057;-70
2023/04/11 07:57:03;;;;;;;47.40;44.88;;;18.70;99.90;;;;;;5126009;28;20035;-71
2023/04/11 07:59:34;;;;;;;46.00;43.45;;;18.70;99.90;;;;;;5126028;28;20058;-66
2023/04/11 08:02:08;;;;;;;50.10;47.40;;;18.70;99.90;;;;;;5125835;28;20468;-69
2023/04/11 08:04:42;;;;;;;50.70;47.90;;;18.70;99.90;;;;;;5125710;28;20031;-67
2023/04/11 08:07:13;;;;;;;52.67;49.78;;;18.60;99.90;;;;;;5125577;28;20031;-70
2023/04/11 08:09:44;;;;;;;47.67;45.05;;;18.60;99.90;;;;;;5125774;28;20392;-70
2023/04/11 08:12:15;;;;;;;49.30;46.55;;;18.60;99.90;;;;;;5125584;28;20061;-70
2023/04/11 08:14:46;;;;;;;47.55;44.85;;;18.70;99.90;;;;;;5125618;28;20054;-66
2023/04/11 08:17:17;;;;;;;49.38;46.47;;;18.80;99.90;;;;;;5125484;28;20032;-70
2023/04/11 08:19:48;;;;;;;47.30;44.60;;;18.80;99.90;;;;;;5125496;28;20027;-70
2023/04/11 08:22:18;;;;;;;46.03;43.22;;;18.80;99.90;;;;;;5130990;28;20034;-70
2023/04/11 08:24:49;;;;;;;48.55;45.85;;;18.80;99.90;;;;;;5164818;28;20116;-70
2023/04/11 08:27:20;;;;;;;48.33;45.58;;;18.70;99.90;;;;;;5165224;28;20034;-69
2023/04/11 08:29:51;;;;;;;47.22;44.60;;;18.80;99.90;;;;;;5165345;28;20022;-70
2023/04/11 08:32:22;;;;;;;42.40;40.00;;;18.80;99.90;;;;;;5165320;28;20042;-68
2023/04/11 08:34:53;;;;;;;46.45;43.75;;;18.70;99.90;;;;;;5165440;28;20022;-70
2023/04/11 08:37:24;;;;;;;46.97;44.28;;;18.70;99.90;;;;;;5165376;28;20374;-66
2023/04/11 08:39:55;;;;;;;45.25;42.58;;;18.70;99.90;;;;;;5165386;28;20033;-66
2023/04/11 08:42:30;;;;;;;46.78;43.92;;;18.60;99.90;;;;;;5165356;28;20112;-65
2023/04/11 08:45:07;;;;;;;43.95;41.40;;;18.80;99.90;;;;;;5136134;28;20051;-69
2023/04/11 08:47:38;;;;;;;46.28;43.58;;;18.80;99.90;;;;;;5124254;28;20043;-67
2023/04/11 08:50:09;;;;;;;44.65;42.15;;;18.80;99.90;;;;;;5125408;28;20491;-69
2023/04/11 08:52:42;;;;;;;41.00;38.67;;;18.80;99.90;;;;;;5124995;28;20031;-67
2023/04/11 08:55:14;;;;;;;45.28;42.78;;;18.80;99.90;;;;;;5124873;28;20066;-67
2023/04/11 08:57:45;;;;;;;40.53;38.30;;;18.80;99.90;;;;;;5125236;28;20035;-71
2023/04/11 09:00:22;;;;;;;43.17;40.70;;;18.80;99.90;;;;;;5125125;28;20027;-71
2023/04/11 09:02:57;;;;;;;43.25;40.90;;;18.70;99.90;;;;;;5125163;28;20037;-71
2023/04/11 09:05:30;;;;;;;42.10;39.80;;;18.80;99.90;;;;;;5125011;28;20027;-71
2023/04/11 09:08:10;;;;;;;41.65;39.20;;;18.80;99.90;;;;;;5124960;28;20074;-70
2023/04/11 09:10:46;;;;;;;44.78;42.15;;;18.80;99.90;;;;;;5125170;28;20399;-71
2023/04/11 09:13:22;;;;;;;42.13;39.63;;;18.80;99.90;;;;;;5125110;28;20042;-71
2023/04/11 09:16:07;;;;;;;42.95;40.65;;;18.80;99.90;;;;;;5124916;28;20023;-70
2023/04/11 09:18:42;;;;;;;44.40;41.92;;;18.80;99.90;;;;;;5124929;28;20451;-70
2023/04/11 09:21:16;;;;;;;48.17;45.58;;;18.70;99.90;;;;;;5124863;28;20031;-71
2023/04/11 09:23:49;;;;;;;47.13;44.53;;;18.70;99.90;;;;;;5124920;28;20027;-71
2023/04/11 09:26:28;;;;;;;46.58;44.03;;;18.70;99.90;;;;;;5124297;28;20063;-71
2023/04/11 09:29:00;;;;;;;46.65;44.15;;;18.70;99.90;;;;;;5124915;28;20028;-71
2023/04/11 09:31:44;;;;;;;42.58;40.28;;;18.70;99.90;;;;;;5124719;28;20028;-70
2023/04/11 09:34:22;;;;;;;39.40;37.30;;;18.80;99.90;;;;;;5124582;28;20035;-69
2023/04/11 09:36:54;;;;;;;42.17;39.88;;;18.80;99.90;;;;;;5124568;28;20047;-71
2023/04/11 09:39:28;;;;;;;42.08;39.78;;;18.70;99.90;;;;;;5124706;28;20407;-71
2023/04/11 09:41:59;;;;;;;41.88;39.55;;;18.70;99.90;;;;;;5124799;28;20480;-71
2023/04/11 09:44:37;;;;;;;44.33;41.83;;;18.70;99.90;;;;;;5124618;28;20031;-70
2023/04/11 09:47:08;;;;;;;44.20;41.80;;;18.70;99.90;;;;;;5124477;28;20573;-70
2023/04/11 09:49:39;;;;;;;45.75;43.25;;;18.70;99.90;;;;;;5124584;28;20023;-70
2023/04/11 09:52:11;;;;;;;44.10;41.65;;;18.70;99.90;;;;;;5124723;28;20086;-70
2023/04/11 09:54:42;;;;;;;38.38;36.25;;;18.70;99.90;;;;;;5124433;28;20086;-69
2023/04/11 09:57:13;;;;;;;40.05;37.85;;;18.70;99.90;;;;;;5124569;28;20031;-70
2023/04/11 09:59:45;;;;;;;40.97;38.78;;;18.60;99.90;;;;;;5124545;28;20011;-70
2023/04/11 10:02:16;;;;;;;39.10;37.00;;;18.60;99.90;;;;;;5124455;28;20019;-70
2023/04/11 10:04:47;;;;;;;38.35;36.15;;;18.70;99.90;;;;;;5125752;28;20038;-66
2023/04/11 10:07:19;;;;;;;39.05;36.95;;;18.70;99.90;;;;;;5138753;28;20470;-70
2023/04/11 10:09:50;;;;;;;42.35;40.13;;;18.60;99.90;;;;;;5128026;28;20035;-70
2023/04/11 10:12:31;;;;;;;41.95;39.65;;;18.70;99.90;;;;;;5128280;28;20086;-70
2023/04/11 10:15:09;;;;;;;43.60;41.10;;;18.70;99.90;;;;;;5128306;28;20019;-70
2023/04/11 10:17:40;;;;;;;40.42;38.13;;;18.70;99.90;;;;;;5128039;28;20424;-70
2023/04/11 10:20:48;;;;;;;38.22;36.20;;;18.70;99.90;;;;;;5127789;28;20031;-70
2023/04/11 10:23:19;;;;;;;41.17;38.78;;;18.70;99.90;;;;;;5127860;28;20051;-70
2023/04/11 10:25:58;;;;;;;41.88;39.58;;;18.60;99.90;;;;;;5127367;29;20094;-70
2023/04/11 10:28:30;;;;;;;42.20;39.88;;;18.60;99.90;;;;;;5127572;28;20086;-69
2023/04/11 10:31:07;;;;;;;41.85;39.55;;;18.70;99.90;;;;;;5127657;28;20070;-70
2023/04/11 10:33:59;;;;;;;44.03;41.63;;;18.60;99.90;;;;;;5129672;28;20066;-69
2023/04/11 10:37:06;;;;;;;45.58;43.13;;;18.70;99.90;;;;;;5134041;28;20106;-69
2023/04/11 10:39:52;;;;;;;44.55;42.15;;;18.70;99.90;;;;;;5136539;28;20061;-68
2023/04/11 10:42:27;;;;;;;46.40;43.90;;;18.60;99.90;;;;;;5136658;28;20065;-68
2023/04/11 10:45:14;;;;;;;44.15;41.75;;;18.70;99.90;;;;;;5136592;28;20032;-67
2023/04/11 10:48:06;;;;;;;41.53;39.33;;;18.70;99.90;;;;;;5136637;28;20109;-68
2023/04/11 10:50:42;;;;;;;43.58;41.08;;;18.70;99.90;;;;;;5135878;28;20375;-67
2023/04/11 10:53:32;;;;;;;44.47;41.85;;;18.70;99.90;;;;;;5138050;28;20110;-68
2023/04/11 10:56:04;;;;;;;45.13;42.72;;;18.70;99.90;;;;;;5136301;28;20490;-69
2023/04/11 10:58:38;;;;;;;42.35;40.05;;;18.70;99.90;;;;;;5133070;28;20070;-69
2023/04/11 11:01:16;;;;;;;42.75;40.38;;;18.70;99.90;;;;;;5126521;28;20042;-68
2023/04/11 11:03:51;;;;;;;43.75;41.45;;;18.60;99.90;;;;;;5137178;28;20071;-69
2023/04/11 11:06:23;;;;;;;39.63;37.42;;;18.60;99.90;;;;;;5135346;28;20038;-70
2023/04/11 11:08:55;;;;;;;43.30;40.78;;;18.70;99.90;;;;;;5137743;28;20463;-68
2023/04/11 11:11:25;;;;;;;43.90;41.58;;;18.60;99.90;;;;;;5134984;28;20023;-69
2023/04/11 11:13:57;;;;;;;42.80;40.38;;;18.60;99.90;;;;;;5135728;28;20015;-69
2023/04/11 11:16:28;;;;;;;44.75;42.25;;;18.70;99.90;;;;;;5135333;28;20467;-68
2023/04/11 11:18:58;;;;;;;43.70;41.33;;;18.60;99.90;;;;;;5135653;28;20023;-68
2023/04/11 11:21:33;;;;;;;43.22;40.53;;;18.50;99.90;;;;;;5136423;28;20062;-68
2023/04/11 11:24:04;;;;;;;42.83;40.42;;;18.60;99.90;;;;;;5135748;28;20430;-67
2023/04/11 11:26:42;;;;;;;40.47;38.28;;;18.60;99.90;;;;;;5134697;28;20079;-68
2023/04/11 11:29:12;;;;;;;43.90;41.50;;;18.50;99.90;;;;;;5134617;28;20114;-68
2023/04/11 11:31:45;;;;;;;42.05;39.65;;;18.50;99.90;;;;;;5130851;28;20134;-67
2023/04/11 11:34:27;;;;;;;43.78;41.38;;;18.50;99.90;;;;;;5125887;28;20035;-67
2023/04/11 11:37:05;;;;;;;45.15;42.03;;;18.50;99.90;;;;;;5125847;28;20831;-67
2023/04/11 11:39:36;;;;;;;43.67;40.33;;;18.30;99.90;;;;;;5126098;28;20027;-67
2023/04/11 11:42:07;;;;;;;41.90;39.00;;;18.30;99.90;;;;;;5126192;28;20070;-68
2023/04/11 11:44:38;;;;;;;41.92;39.38;;;18.40;99.90;;;;;;5126101;28;20066;-67
2023/04/11 11:47:16;;;;;;;42.75;39.25;;;18.40;99.90;;;;;;5126085;28;20047;-68
2023/04/11 11:49:49;;;;;;;42.90;40.35;;;18.30;99.90;;;;;;5126168;28;20083;-65
2023/04/11 11:52:35;;;;;;;42.85;40.25;;;17.40;99.90;;;;;;5134937;28;20050;-65
2023/04/11 11:55:28;;;;;;;37.22;34.63;;;16.10;99.90;;;;;;5135334;28;20089;-65
2023/04/11 11:58:04;;;;;;;37.20;34.90;;;16.00;99.90;;;;;;5129860;28;20058;-65
2023/04/11 12:00:39;;;;;;;37.75;35.25;;;15.70;99.90;;;;;;5130689;28;20023;-67
2023/04/11 12:03:10;;;;;;;36.85;34.65;;;16.00;99.90;;;;;;5125827;28;20053;-67
2023/04/11 12:05:42;;;;;;;37.10;34.70;;;16.00;99.90;;;;;;5125756;28;20031;-67
2023/04/11 12:08:13;;;;;;;39.38;36.95;;;15.70;99.90;;;;;;5125667;28;20035;-66
2023/04/11 12:10:48;;;;;;;43.00;39.92;;;15.40;99.90;;;;;;5125720;28;20023;-67
2023/04/11 12:13:25;;;;;;;42.58;40.00;;;15.60;99.90;;;;;;5125641;28;20016;-65
2023/04/11 12:16:00;;;;;;;40.17;37.42;;;15.70;99.90;;;;;;5125583;28;20094;-67
2023/04/11 12:18:30;;;;;;;40.03;37.58;;;17.90;99.90;;;;;;5125545;28;20030;-67
2023/04/11 12:21:01;;;;;;;40.92;38.40;;;16.40;99.90;;;;;;5125541;28;20376;-67
2023/04/11 12:23:32;;;;;;;38.00;35.75;;;17.20;99.90;;;;;;5125552;28;20019;-67
2023/04/11 12:26:03;;;;;;;37.60;35.20;;;16.00;99.90;;;;;;5125294;28;20058;-67
2023/04/11 12:28:34;;;;;;;41.20;38.63;;;15.70;99.90;;;;;;5125515;28;20518;-67
2023/04/11 12:31:05;;;;;;;39.15;36.63;;;16.30;99.90;;;;;;5125738;28;20031;-66
2023/04/11 12:33:36;;;;;;;39.28;36.67;;;15.60;99.90;;;;;;5125526;28;20471;-64
2023/04/11 12:36:07;;;;;;;42.05;39.35;;;15.80;99.90;;;;;;5125545;28;20027;-66
2023/04/11 12:38:38;;;;;;;39.10;36.78;;;16.00;99.90;;;;;;5125547;28;20035;-63
2023/04/11 12:41:09;;;;;;;42.60;39.80;;;15.60;99.90;;;;;;5125385;28;20394;-67
2023/04/11 12:43:39;;;;;;;46.47;43.42;;;15.80;99.90;;;;;;5125420;28;20353;-67
2023/04/11 12:46:10;;;;;;;40.83;38.10;;;15.40;99.90;;;;;;5125230;28;20110;-68
2023/04/11 12:48:41;;;;;;;40.85;38.25;;;16.10;99.90;;;;;;5125055;28;20151;-67
2023/04/11 12:51:12;;;;;;;42.22;39.53;;;15.60;99.90;;;;;;5125231;28;20031;-62
2023/04/11 12:53:43;;;;;;;39.85;37.40;;;16.10;99.90;;;;;;5124913;28;20105;-65
2023/04/11 12:56:14;;;;;;;45.13;42.33;;;15.90;99.90;;;;;;5124673;28;20063;-66
2023/04/11 12:58:45;;;;;;;42.08;39.50;;;15.90;99.90;;;;;;5126188;28;20387;-67